• Join FlightAware (Why Join?)
  • Login
  • US Flag 
09:39PM EST


 

Airport Tracker/Info


-or-


 

Live Flight TrackerFlight Track Log ✈ ACA7033 ✈ 12-Apr-2014 ✈ KDTW - KPHL

Flight Track Log - Related Links

Times and Time Zones

All times are in EDT time to prevent confusion due to time zone crossing. See the ACA7033 flight status page for this flight to view local times or setup timezone preferences in your user account.

Time Position Orientation Groundspeed Altitude Reporting Facility
EDT Latitude Longitude Course Direction KTS MPH feet Rate Location/Type
01:28PM 42.2050 -83.3528 186° South 148 170 1,300  Level Cleveland Center
01:28PM 42.1839 -83.3556 186° South 161 185 2,400 2,160 Climbing Cleveland Center
01:29PM 42.1353 -83.3347 162° South 229 264 4,600 2,040 Climbing Cleveland Center
01:30PM 42.1239 -83.3200 136° Southeast 222 255 5,200 3,120 Climbing Cleveland Center
01:30PM 42.0842 -83.2656 135° Southeast 275 316 7,800 3,180 Climbing Cleveland Center
01:31PM 42.0769 -83.2442 114° Southeast 263 303 8,500 1,920 Climbing Cleveland Center
01:32PM 42.0975 -83.1256 77° East 309 356 10,500 1,800 Climbing Cleveland Center
01:33PM 42.1225 -82.9944 76° East 360 414 12,200 2,460 Climbing Cleveland Center
01:34PM 42.1539 -82.8300 76° East 378 435 15,600 3,000 Climbing Cleveland Center
01:35PM 42.1811 -82.6853 76° East 396 456 18,400 2,340 Climbing Cleveland Center
01:36PM 42.2089 -82.5361 76° East 408 470 20,500 1,860 Climbing Cleveland Center
01:37PM 42.2214 -82.3717 84° East 444 511 22,300 2,100 Climbing Cleveland Center
01:38PM 42.2086 -82.2044 96° East 451 519 24,900 1,980 Climbing Cleveland Center
01:39PM 42.1728 -82.0300 105° East 470 541 26,400 1,560 Climbing Cleveland Center
01:40PM 42.0950 -81.8475 120° Southeast 478 550 28,200 1,680 Climbing Cleveland Center
01:41PM 42.0011 -81.7161 134° Southeast 482 555 29,900 1,320 Climbing Cleveland Center
01:42PM 41.8975 -81.5972 139° Southeast 483 556 31,000 780 Climbing Cleveland Center
01:43PM 41.7947 -81.4769 139° Southeast 483 556 31,500 600 Climbing Cleveland Center
01:44PM 41.6908 -81.3578 139° Southeast 483 556 32,300 720 Climbing Cleveland Center
01:45PM 41.5850 -81.2394 140° Southeast 486 559 33,000 300 Climbing Cleveland Center
01:46PM 41.4836 -81.1178 138° Southeast 486 559 33,000  Level Cleveland Center
01:47PM 41.3914 -80.9858 133° Southeast 482 555 33,000  Level Cleveland Center
01:48PM 41.2992 -80.8606 134° Southeast 474 545 33,000  Level Cleveland Center
01:49PM 41.2078 -80.7347 134° Southeast 472 543 33,000  Level Cleveland Center
01:50PM 41.1103 -80.5997 134° Southeast 471 542 33,000  Level Cleveland Center
01:51PM 41.0200 -80.4761 134° Southeast 471 542 33,000  Level Cleveland Center
01:52PM 40.9283 -80.3500 134° Southeast 471 542 33,000  Level Cleveland Center
01:53PM 40.8300 -80.2164 134° Southeast 472 543 33,100  Climbing Cleveland Center
01:55PM 40.7397 -80.0919 134° Southeast 473 544 33,000 -60 Descending Cleveland Center
01:56PM 40.6333 -79.9492 134° Southeast 472 543 33,000  Level Cleveland Center
01:57PM 40.5417 -79.8250 134° Southeast 470 541 33,000  Level Cleveland Center
01:58PM 40.4500 -79.7008 134° Southeast 470 541 33,000  Level Cleveland Center
01:59PM 40.3594 -79.5789 134° Southeast 468 539 33,000  Level Cleveland Center
02:00PM 40.2711 -79.4556 133° Southeast 466 536 33,000  Level Cleveland Center
02:01PM 40.2211 -79.2811 111° Southeast 462 532 33,000  Level Cleveland Center
02:02PM 40.2353 -79.1189 83° East 450 518 33,000  Level Cleveland Center
02:03PM 40.2461 -78.9536 85° East 456 525 33,000  Level Cleveland Center
02:04PM 40.2592 -78.7914 84° East 457 526 33,000 -480 Level Cleveland Center
02:05PM 40.2706 -78.6261 85° East 458 527 32,100 -1,020 Descending Cleveland Center
02:06PM 40.2839 -78.4308 85° East 457 526 31,000 -1,500 Descending Cleveland Center
02:07PM 40.2950 -78.2708 85° East 450 518 29,000 -2,040 Descending Cleveland Center
02:08PM 40.3058 -78.1125 85° East 444 511 26,900 -1,920 Descending Cleveland Center
02:09PM 40.3144 -77.9575 86° East 435 501 25,100 -1,260 Descending Cleveland Center
02:10PM 40.3122 -77.8058 91° East 425 489 24,300 -1,020 Descending Cleveland Center
02:11PM 40.3117 -77.6253 90° East 419 482 23,000 -1,200 Descending Cleveland Center
02:12PM 40.3086 -77.4794 92° East 407 468 21,900 -1,020 Descending Cleveland Center
02:13PM 40.2875 -77.3172 100° East 452 520 21,000 -660 Descending Cleveland Center
02:14PM 40.2642 -77.1525 100° East 444 511 20,600 -1,080 Descending New York Center
02:15PM 40.2442 -76.9767 98° East 450 518 18,900 -1,440 Descending New York Center
02:16PM 40.2244 -76.8333 100° East 450 518 17,800 -1,260 Descending New York Center
02:17PM 40.2069 -76.6853 99° East 431 496 16,400 -1,560 Descending New York Center
02:18PM 40.1839 -76.5228 100° East 410 472 14,700 -1,380 Descending New York Center
02:19PM 40.1658 -76.3775 99° East 405 466 13,700 -1,020 Descending New York Center
02:20PM 40.1494 -76.2375 99° East 398 458 12,700 -1,080 Descending New York Center
02:21PM 40.1322 -76.1111 100° East 390 449 11,600 -1,200 Descending New York Center
02:22PM 40.1136 -75.9714 100° East 365 420 10,400 -1,080 Descending New York Center
02:23PM 40.0972 -75.8669 102° East 336 387 9,500 -1,200 Descending New York Center
02:24PM 40.0814 -75.7464 100° East 308 354 8,100 -780 Descending New York Center
02:25PM 40.0772 -75.6483 93° East 301 346 8,000 -480 Descending New York Center
02:26PM 40.0797 -75.5347 88° East 291 335 7,200 -540 Descending New York Center
02:27PM 40.0814 -75.4425 89° East 286 329 7,000 -120 Descending New York Center
02:28PM 40.0817 -75.3314 90° East 281 323 7,000 -120 Level New York Center
02:29PM 40.0500 -75.2167 110° East 222 255 6,800 -420 Descending Philadelphia TRACON
02:30PM 40.0000 -75.1833 153° Southeast 225 259 6,100 -420 Descending Philadelphia TRACON
02:31PM 40.0000 -75.1167 90° East 203 234 6,000 -60 Descending Philadelphia TRACON
02:32PM 40.0000 -75.0333 90° East 203 234 6,000  Level Philadelphia TRACON
02:33PM 40.0000 -74.9667 90° East 199 229 6,000 -300 Level Philadelphia TRACON
02:34PM 40.0000 -74.9000 90° East 207 238 5,500 -780 Descending Philadelphia TRACON
02:35PM 39.9500 -74.8833 166° South 190 219 4,500 -780 Descending Philadelphia TRACON
02:36PM 39.9333 -74.9333 247° West 188 216 4,000 -540 Descending Philadelphia TRACON
02:37PM 39.9167 -75.0000 252° West 190 219 3,500 -840 Descending Philadelphia TRACON
02:38PM 39.9000 -75.0667 252° West 182 209 2,400 -1,020 Descending Philadelphia TRACON
02:39PM 39.9000 -75.1333 270° West 163 188 1,500 -840 Descending Philadelphia TRACON
02:40PM 39.8833 -75.1667 237° Southwest 134 154 800 -720 Descending Philadelphia TRACON
02:42PM 39.8667 -75.2333 226° Southwest  Level FlightAware Approximate
02:49PM 39.8722 -75.2409 226° Southwest  Level Estimated
02:50PM 39.8722 -75.2409 226° Southwest  Level Estimated